Fitness

Musculation

Nutrition

Minceur

Maman et bébé

Bien-être

Beauté

Santé


  • Index 
  • » Tapis de course pour quoi faire?

Tapis de course pour quoi faire?

Discussion Réponses Vues Dernier message
Tapis de course Home Run 4.0 par amateurdesport
3 899 2019-02-13 09:58:27 par natacha
3 40 2019-02-11 17:55:39 par lilouata
ProForm Power 795i par minceur
4 71 2019-01-31 08:51:48 par Lequilibriste
Weslo Cadence 16.0 par carie
6 754 2019-01-31 08:49:58 par Lequilibriste
Proform Performance 350i par pro-kiné
4 246 2019-01-14 14:04:02 par bomuscle
Home Run 1.5 par carlosi
1 155 2018-12-13 11:59:24 par Dirounet
Tapis Run Tech A par Zaza
1 169 2018-12-13 11:44:56 par Aliana
6 940 2018-12-10 08:54:19 par peter
3 237 2018-10-25 08:19:50 par minceur
2 118 2018-10-15 09:24:05 par accelerator
proform 505 cst par farouche07
5 394 2018-05-31 10:27:44 par gardenia38
6 1296 2018-05-28 12:29:11 par ptitange
1 160 2018-05-25 15:52:43 par Antibenna
5 282 2018-05-24 15:37:01 par mamanou
8 1344 2018-01-24 19:49:18 par coyote
11 2005 2018-01-24 11:13:28 par carlosi
4 791 2018-01-24 10:31:22 par lesportif
Tapis de course par Nouveau13
1 183 2018-01-23 17:10:19 par coachissimo
Le tapis de course par Dadou
2 196 2018-01-23 16:55:59 par tinette06
5 1272 2018-01-22 09:13:01 par Johny
Kettler Track 3 avis par constance
19 2065 2017-12-15 08:42:13 par making
30 9724 2017-12-07 16:35:24 par angelitto69
6 1007 2017-12-06 09:20:00 par COQUIN
2 237 2017-11-24 11:31:10 par quadra
11 2044 2017-10-09 07:59:50 par bastoche
2 887 2017-07-05 10:51:55 par Louanos
Tapis Run Tech A par Pipellette07
6 1070 2017-02-14 14:52:47 par Bananala
20 1765 2017-02-08 15:46:29 par Mysticat
1 416 2017-01-31 08:11:55 par lievre
5 1297 2017-01-13 08:17:44 par tinette06
  • Index 
  • » Tapis de course pour quoi faire?

Pied de page des forums

Propulsé par PunBB
© Copyright 2002–2018 123Fitness
Traduction par punbb.fr